Time;durP1;ratioP1;P1;durP2;ratioP2;P2;SDS_P1;SDS_P2;PMS_P1;PMS_P2;Temp;Humidity;BMP_temperature;BMP_pressure;BME280_temperature;BME280_humidity;BME280_pressure;Samples;Min_cycle;Max_cycle;Signal;HPM_P1;HPM_P2
2023/04/16 00:00:22;;;;;;;28.60;18.23;;;7.60;61.50;;;;;;7374850;19;20538;-68
2023/04/16 00:02:52;;;;;;;26.02;18.25;;;7.50;61.20;;;;;;7375326;19;20007;-69
2023/04/16 00:05:22;;;;;;;27.45;19.38;;;7.50;61.00;;;;;;7374569;19;20459;-68
2023/04/16 00:07:53;;;;;;;28.65;19.20;;;7.50;61.10;;;;;;7381826;19;20098;-69
2023/04/16 00:10:22;;;;;;;29.23;18.75;;;7.50;61.30;;;;;;7393495;19;20011;-68
2023/04/16 00:12:52;;;;;;;26.70;18.65;;;7.50;61.40;;;;;;7375368;19;20007;-68
2023/04/16 00:15:25;;;;;;;28.23;18.30;;;7.50;61.20;;;;;;7372520;19;20091;-69
2023/04/16 00:17:55;;;;;;;25.60;17.42;;;7.50;61.30;;;;;;7375259;19;20570;-69
2023/04/16 00:20:25;;;;;;;24.42;17.08;;;7.50;61.30;;;;;;7371225;19;20113;-69
2023/04/16 00:22:55;;;;;;;24.02;16.52;;;7.50;61.30;;;;;;7374671;19;20025;-69
2023/04/16 00:25:25;;;;;;;26.63;18.25;;;7.50;61.10;;;;;;7395179;19;20034;-69
2023/04/16 00:27:55;;;;;;;25.35;17.15;;;7.40;61.20;;;;;;7373911;19;20007;-68
2023/04/16 00:30:28;;;;;;;27.40;18.00;;;7.50;61.60;;;;;;7374032;19;20007;-69
2023/04/16 00:32:58;;;;;;;25.45;17.27;;;7.50;61.70;;;;;;7374184;19;20384;-69
2023/04/16 00:35:28;;;;;;;28.23;18.25;;;7.50;61.40;;;;;;7373406;19;20482;-69
2023/04/16 00:37:58;;;;;;;25.92;18.27;;;7.40;61.10;;;;;;7373596;19;20471;-68
2023/04/16 00:40:30;;;;;;;23.30;16.75;;;7.50;61.70;;;;;;7391818;19;20052;-68
2023/04/16 00:43:00;;;;;;;24.85;17.73;;;7.50;61.50;;;;;;7374126;19;20014;-68
2023/04/16 00:45:32;;;;;;;25.23;17.52;;;7.50;61.30;;;;;;7372271;19;20074;-69
2023/04/16 00:48:03;;;;;;;25.45;16.45;;;7.50;61.40;;;;;;7373944;19;20043;-68
2023/04/16 00:50:33;;;;;;;26.13;16.90;;;7.50;61.10;;;;;;7371263;19;20011;-69
2023/04/16 00:53:03;;;;;;;24.35;16.23;;;7.50;61.50;;;;;;7373481;19;20019;-68
2023/04/16 00:55:33;;;;;;;23.00;16.08;;;7.50;61.10;;;;;;7393536;19;20010;-69
2023/04/16 00:58:04;;;;;;;21.98;15.77;;;7.50;61.10;;;;;;7373549;19;20029;-69
2023/04/16 01:00:40;;;;;;;21.35;15.05;;;7.50;61.00;;;;;;7371030;19;20015;-69
2023/04/16 01:03:11;;;;;;;21.95;15.48;;;7.50;61.40;;;;;;7374343;19;20009;-69
2023/04/16 01:05:41;;;;;;;23.23;15.82;;;7.50;61.10;;;;;;7371500;19;20017;-69
2023/04/16 01:08:18;;;;;;;22.73;14.70;;;7.50;61.20;;;;;;7374427;19;20330;-69
2023/04/16 01:10:48;;;;;;;21.77;15.18;;;7.50;60.30;;;;;;7392381;19;20014;-68
2023/04/16 01:13:18;;;;;;;19.65;14.57;;;7.50;60.20;;;;;;7373212;19;20102;-69
2023/04/16 01:15:50;;;;;;;20.55;13.88;;;7.50;60.30;;;;;;7371336;19;20017;-69
2023/04/16 01:18:22;;;;;;;21.83;15.80;;;7.50;59.40;;;;;;7371728;19;20487;-69
2023/04/16 01:20:54;;;;;;;22.45;14.85;;;7.50;60.20;;;;;;7370998;19;20070;-68
2023/04/16 01:23:24;;;;;;;22.67;15.55;;;7.50;58.70;;;;;;7372546;19;20007;-69
2023/04/16 01:25:55;;;;;;;21.33;15.38;;;7.50;59.80;;;;;;7371884;19;20007;-69
2023/04/16 01:28:25;;;;;;;23.88;15.30;;;7.50;60.20;;;;;;7393789;19;20010;-69
2023/04/16 01:30:55;;;;;;;21.15;15.10;;;7.50;60.00;;;;;;7371205;19;20014;-68
2023/04/16 01:33:25;;;;;;;22.17;14.90;;;7.50;60.10;;;;;;7371708;19;20482;-69
2023/04/16 01:35:57;;;;;;;19.95;13.88;;;7.50;60.10;;;;;;7371979;19;20467;-69
2023/04/16 01:38:27;;;;;;;19.83;13.95;;;7.50;60.20;;;;;;7372259;19;20006;-68
2023/04/16 01:40:58;;;;;;;20.00;13.65;;;7.40;60.10;;;;;;7370992;19;20014;-69
2023/04/16 01:43:28;;;;;;;19.80;13.77;;;7.40;60.20;;;;;;7393704;19;20023;-69
2023/04/16 01:46:13;;;;;;;21.75;14.75;;;7.40;60.20;;;;;;7372103;19;20023;-69
2023/04/16 01:48:43;;;;;;;;;;;7.50;60.40;;;;;;7371917;19;20018;-69
2023/04/16 01:51:16;;;;;;;19.00;13.50;;;7.50;60.60;;;;;;7371888;19;19986;-68
2023/04/16 01:53:45;;;;;;;19.83;12.77;;;7.40;60.60;;;;;;7387445;19;20010;-68
2023/04/16 01:56:15;;;;;;;21.80;14.40;;;7.40;60.20;;;;;;7403093;19;20031;-68
2023/04/16 01:58:46;;;;;;;21.65;13.88;;;7.40;60.20;;;;;;7423918;19;20066;-68
2023/04/16 02:01:16;;;;;;;22.25;15.25;;;7.40;60.40;;;;;;7379975;19;20013;-68
2023/04/16 02:03:46;;;;;;;20.30;15.30;;;7.50;60.50;;;;;;7370470;19;20025;-68
2023/04/16 02:06:19;;;;;;;22.42;15.02;;;7.40;60.20;;;;;;7371250;19;20006;-69
2023/04/16 02:08:49;;;;;;;20.45;14.85;;;7.40;60.40;;;;;;7370789;19;20025;-69
2023/04/16 02:11:19;;;;;;;22.48;15.70;;;7.50;60.60;;;;;;7369456;19;20015;-67
2023/04/16 02:13:48;;;;;;;21.40;15.23;;;7.50;60.50;;;;;;7389576;19;20022;-68
2023/04/16 02:16:18;;;;;;;22.27;14.45;;;7.40;60.20;;;;;;7369197;19;20009;-68
2023/04/16 02:18:48;;;;;;;23.80;15.98;;;7.50;60.40;;;;;;7369535;19;20011;-68
2023/04/16 02:21:21;;;;;;;21.20;14.48;;;7.50;60.50;;;;;;7370304;19;20002;-68
2023/04/16 02:23:51;;;;;;;22.52;15.45;;;7.40;60.40;;;;;;7369272;19;20423;-68
2023/04/16 02:26:21;;;;;;;23.25;15.85;;;7.50;60.40;;;;;;7369561;19;20094;-69
2023/04/16 02:28:51;;;;;;;22.85;15.07;;;7.50;60.80;;;;;;7388808;19;20011;-70
2023/04/16 02:31:21;;;;;;;22.67;15.15;;;7.50;60.60;;;;;;7390467;19;20474;-69
2023/04/16 02:33:51;;;;;;;23.02;15.90;;;7.50;60.30;;;;;;7362954;19;20028;-68
2023/04/16 02:36:24;;;;;;;22.15;15.85;;;7.40;60.20;;;;;;7368831;19;20061;-69
2023/04/16 02:38:54;;;;;;;21.17;15.18;;;7.50;60.30;;;;;;7368903;19;20017;-68
2023/04/16 02:41:24;;;;;;;22.08;15.07;;;7.40;60.30;;;;;;7367075;19;20081;-68
2023/04/16 02:43:54;;;;;;;23.45;16.52;;;7.50;60.40;;;;;;7368266;19;20470;-69
2023/04/16 02:46:24;;;;;;;21.05;15.25;;;7.50;60.40;;;;;;7390486;19;20352;-70
2023/04/16 02:48:54;;;;;;;22.55;14.95;;;7.50;60.40;;;;;;7369041;19;20014;-69
2023/04/16 02:51:26;;;;;;;24.63;16.00;;;7.40;60.30;;;;;;7368751;19;20407;-69
2023/04/16 02:53:56;;;;;;;25.55;16.67;;;7.50;60.60;;;;;;7367967;19;20022;-68
2023/04/16 02:56:26;;;;;;;23.98;16.40;;;7.50;60.50;;;;;;7370197;19;20517;-70
2023/04/16 02:58:56;;;;;;;22.33;15.13;;;7.50;60.90;;;;;;7369179;19;20026;-68
2023/04/16 03:01:27;;;;;;;23.70;15.10;;;7.50;60.50;;;;;;7389590;19;20021;-68
2023/04/16 03:03:57;;;;;;;21.17;14.55;;;7.40;60.40;;;;;;7367633;19;20018;-68
2023/04/16 03:06:30;;;;;;;25.58;16.10;;;7.40;60.40;;;;;;7368693;19;20006;-68
2023/04/16 03:09:00;;;;;;;22.77;14.85;;;7.40;60.60;;;;;;7368467;19;20014;-69
2023/04/16 03:11:30;;;;;;;22.65;15.68;;;7.50;60.90;;;;;;7367490;19;20078;-68
2023/04/16 03:14:00;;;;;;;22.25;15.77;;;7.40;62.20;;;;;;7367670;19;20094;-69
2023/04/16 03:16:30;;;;;;;20.10;14.15;;;7.40;61.80;;;;;;7390215;19;20014;-68
2023/04/16 03:19:00;;;;;;;24.35;15.80;;;7.40;61.40;;;;;;7368442;19;20035;-68
2023/04/16 03:21:32;;;;;;;21.23;15.27;;;7.50;62.00;;;;;;7367691;19;20002;-69
2023/04/16 03:24:02;;;;;;;23.20;14.18;;;7.50;62.00;;;;;;7371734;19;20022;-69
2023/04/16 03:26:32;;;;;;;22.95;15.20;;;7.40;62.00;;;;;;7374430;19;20503;-69
2023/04/16 03:29:03;;;;;;;22.77;13.82;;;7.40;62.00;;;;;;7375322;19;20007;-69
2023/04/16 03:31:33;;;;;;;23.88;15.20;;;7.40;61.90;;;;;;7396031;19;20052;-69
2023/04/16 03:34:03;;;;;;;23.65;15.10;;;7.40;61.80;;;;;;7373866;19;20006;-70
2023/04/16 03:36:36;;;;;;;21.63;14.70;;;7.40;62.20;;;;;;7375182;19;20010;-69
2023/04/16 03:39:06;;;;;;;25.60;16.77;;;7.40;62.30;;;;;;7375273;19;20014;-69
2023/04/16 03:41:36;;;;;;;25.92;16.33;;;7.40;62.50;;;;;;7373581;19;20007;-68
2023/04/16 03:44:06;;;;;;;26.75;17.42;;;7.40;62.60;;;;;;7373595;19;20082;-69
2023/04/16 03:46:35;;;;;;;27.90;17.65;;;7.40;63.00;;;;;;7396862;19;20083;-69
2023/04/16 03:49:05;;;;;;;28.52;18.27;;;7.40;63.40;;;;;;7374673;19;20576;-69
2023/04/16 03:51:38;;;;;;;30.95;18.88;;;7.40;63.10;;;;;;7374609;19;20014;-69
2023/04/16 03:54:08;;;;;;;33.20;18.77;;;7.40;63.20;;;;;;7373772;19;20573;-69
2023/04/16 03:56:38;;;;;;;32.72;19.80;;;7.40;63.40;;;;;;7375200;19;20563;-69
2023/04/16 03:59:07;;;;;;;30.40;18.80;;;7.40;63.60;;;;;;7375588;19;20015;-70
2023/04/16 04:01:38;;;;;;;32.90;18.75;;;7.40;63.80;;;;;;7395647;19;20031;-69
2023/04/16 04:04:08;;;;;;;32.28;18.75;;;7.40;63.60;;;;;;7373463;19;20014;-69
2023/04/16 04:06:41;;;;;;;29.70;18.30;;;7.40;63.70;;;;;;7372366;19;20010;-69
2023/04/16 04:09:10;;;;;;;31.35;18.60;;;7.30;63.50;;;;;;7374243;19;20499;-68
2023/04/16 04:11:40;;;;;;;30.73;18.58;;;7.30;63.60;;;;;;7375233;19;20061;-68
2023/04/16 04:14:10;;;;;;;33.50;19.90;;;7.30;63.70;;;;;;7373615;19;20010;-70
2023/04/16 04:16:40;;;;;;;27.27;16.45;;;7.40;63.90;;;;;;7396254;19;20014;-69
2023/04/16 04:19:10;;;;;;;32.63;19.90;;;7.30;63.60;;;;;;7373724;19;20082;-69
2023/04/16 04:21:43;;;;;;;33.67;19.25;;;7.40;64.10;;;;;;7372840;19;20011;-69
2023/04/16 04:24:13;;;;;;;33.97;18.98;;;7.30;63.70;;;;;;7373509;19;20473;-69
2023/04/16 04:26:42;;;;;;;28.75;18.27;;;7.30;63.90;;;;;;7374149;19;20065;-69
2023/04/16 04:29:12;;;;;;;31.42;18.02;;;7.30;63.90;;;;;;7373782;19;20023;-68
2023/04/16 04:31:42;;;;;;;31.67;19.50;;;7.30;63.80;;;;;;7395674;19;20010;-68
2023/04/16 04:34:12;;;;;;;31.17;19.30;;;7.30;63.80;;;;;;7371271;19;20006;-69
2023/04/16 04:36:45;;;;;;;31.83;18.23;;;7.40;64.00;;;;;;7372806;19;20343;-69
2023/04/16 04:39:15;;;;;;;33.50;19.80;;;7.40;64.00;;;;;;7373531;19;20462;-68
2023/04/16 04:41:45;;;;;;;32.72;19.48;;;7.30;63.20;;;;;;7373982;19;20021;-70
2023/04/16 04:44:15;;;;;;;31.83;19.58;;;7.30;63.80;;;;;;7372778;19;20015;-69
2023/04/16 04:46:45;;;;;;;35.70;20.77;;;7.30;63.90;;;;;;7395314;19;20014;-70
2023/04/16 04:49:15;;;;;;;33.15;20.15;;;7.30;63.90;;;;;;7372781;19;20014;-69
2023/04/16 04:51:47;;;;;;;38.03;21.73;;;7.30;64.00;;;;;;7373432;19;20034;-70
2023/04/16 04:54:17;;;;;;;36.25;21.08;;;7.30;64.10;;;;;;7372279;19;20011;-69
2023/04/16 04:56:47;;;;;;;35.65;22.00;;;7.40;64.20;;;;;;7373134;19;20030;-68
2023/04/16 04:59:17;;;;;;;44.60;23.63;;;7.40;64.20;;;;;;7373517;19;20029;-68
2023/04/16 05:01:47;;;;;;;38.58;22.83;;;7.30;64.20;;;;;;7393895;19;20013;-68
2023/04/16 05:04:17;;;;;;;37.05;21.65;;;7.30;64.20;;;;;;7371382;19;20078;-69
2023/04/16 05:06:49;;;;;;;42.88;23.58;;;7.30;64.20;;;;;;7372269;19;20526;-70
2023/04/16 05:09:19;;;;;;;40.53;22.23;;;7.30;64.30;;;;;;7372328;19;20013;-68
2023/04/16 05:11:49;;;;;;;43.25;21.65;;;7.30;64.30;;;;;;7374234;19;20007;-68
2023/04/16 05:14:19;;;;;;;41.88;22.10;;;7.30;64.40;;;;;;7372288;19;20384;-68
2023/04/16 05:16:49;;;;;;;44.80;22.77;;;7.30;64.50;;;;;;7395951;19;20082;-69
2023/04/16 05:19:20;;;;;;;43.80;22.85;;;7.30;64.60;;;;;;7371650;19;20006;-69
2023/04/16 05:21:52;;;;;;;49.13;24.92;;;7.20;64.80;;;;;;7371261;19;20522;-70
2023/04/16 05:24:22;;;;;;;49.30;27.48;;;7.30;65.30;;;;;;7371326;19;20017;-69
2023/04/16 05:26:52;;;;;;;49.38;26.42;;;7.30;65.20;;;;;;7374083;19;20009;-67
2023/04/16 05:29:22;;;;;;;48.60;26.88;;;7.30;65.40;;;;;;7372195;19;20003;-68
2023/04/16 05:31:51;;;;;;;57.15;28.17;;;7.30;65.50;;;;;;7393978;19;20010;-70
2023/04/16 05:34:21;;;;;;;53.88;28.40;;;7.40;65.80;;;;;;7390443;19;20003;-68
2023/04/16 05:36:54;;;;;;;57.40;28.92;;;7.40;65.90;;;;;;7407313;19;20015;-68
2023/04/16 05:39:24;;;;;;;56.58;28.98;;;7.30;65.60;;;;;;7404983;19;20007;-67
2023/04/16 05:41:54;;;;;;;54.38;27.85;;;7.30;65.70;;;;;;7403415;19;20064;-68
2023/04/16 05:44:24;;;;;;;56.38;29.00;;;7.30;65.70;;;;;;7370193;19;20042;-68
2023/04/16 05:46:54;;;;;;;57.08;29.85;;;7.30;66.10;;;;;;7369642;19;20014;-69
2023/04/16 05:49:24;;;;;;;58.40;29.33;;;7.30;66.10;;;;;;7390678;19;20010;-68
2023/04/16 05:51:56;;;;;;;62.08;28.55;;;7.40;66.20;;;;;;7371461;19;20018;-68
2023/04/16 05:54:26;;;;;;;58.97;28.83;;;7.30;66.10;;;;;;7368493;19;20007;-69
2023/04/16 05:56:56;;;;;;;60.65;29.45;;;7.30;66.00;;;;;;7371830;19;20017;-69
2023/04/16 05:59:26;;;;;;;51.78;29.08;;;7.30;66.10;;;;;;7368169;19;20011;-69
2023/04/16 06:01:56;;;;;;;55.53;29.40;;;7.30;66.10;;;;;;7370528;19;20025;-70
2023/04/16 06:04:26;;;;;;;57.30;29.92;;;7.30;66.10;;;;;;7390096;19;20340;-69
2023/04/16 06:06:58;;;;;;;54.17;28.63;;;7.30;65.90;;;;;;7370719;19;20029;-70
2023/04/16 06:09:28;;;;;;;59.05;29.55;;;7.30;66.00;;;;;;7368746;19;20039;-69
2023/04/16 06:11:58;;;;;;;51.33;27.80;;;7.40;66.00;;;;;;7371055;19;20058;-69
2023/04/16 06:14:28;;;;;;;51.63;27.25;;;7.40;66.00;;;;;;7368409;19;20058;-70
2023/04/16 06:16:58;;;;;;;51.58;27.15;;;7.40;66.00;;;;;;7370665;19;20053;-69
2023/04/16 06:19:28;;;;;;;54.33;28.30;;;7.40;66.00;;;;;;7391022;19;20018;-69
2023/04/16 06:22:00;;;;;;;51.17;27.50;;;7.40;66.10;;;;;;7370434;19;20391;-69
2023/04/16 06:24:30;;;;;;;56.50;28.67;;;7.40;65.90;;;;;;7368175;19;20046;-69
2023/04/16 06:27:00;;;;;;;54.45;27.35;;;7.40;65.80;;;;;;7369996;19;20039;-69
2023/04/16 06:29:30;;;;;;;54.90;28.38;;;7.40;65.80;;;;;;7368802;19;20010;-69
2023/04/16 06:32:10;;;;;;;51.97;28.17;;;7.50;65.70;;;;;;7370888;19;20070;-69
2023/04/16 06:34:40;;;;;;;55.08;28.08;;;7.50;66.00;;;;;;7389919;19;20845;-70
2023/04/16 06:37:12;;;;;;;48.97;26.70;;;7.40;63.10;;;;;;7365408;19;20025;-69
2023/04/16 06:39:42;;;;;;;47.35;26.00;;;7.50;64.40;;;;;;7362323;19;20035;-69
2023/04/16 06:42:12;;;;;;;51.67;27.02;;;7.50;64.10;;;;;;7369073;19;20022;-69
2023/04/16 06:44:42;;;;;;;54.47;27.90;;;7.50;64.20;;;;;;7367321;19;20011;-69
2023/04/16 06:47:12;;;;;;;46.38;26.00;;;7.60;64.20;;;;;;7391935;19;20006;-69
2023/04/16 06:49:42;;;;;;;57.97;27.98;;;7.50;63.20;;;;;;7367665;19;20015;-69
2023/04/16 06:52:15;;;;;;;51.13;27.67;;;7.50;64.20;;;;;;7369333;19;20477;-69
2023/04/16 06:54:44;;;;;;;48.45;26.15;;;7.50;64.10;;;;;;7365706;19;20089;-69
2023/04/16 06:57:14;;;;;;;48.85;25.83;;;7.50;63.50;;;;;;7368708;19;20022;-69
2023/04/16 06:59:44;;;;;;;51.40;26.80;;;7.50;62.70;;;;;;7367159;19;20343;-69
2023/04/16 07:02:14;;;;;;;47.95;27.15;;;7.50;62.90;;;;;;7391858;19;20017;-69
2023/04/16 07:04:45;;;;;;;44.97;24.75;;;7.60;62.80;;;;;;7366990;19;19999;-69
2023/04/16 07:07:17;;;;;;;47.42;25.70;;;7.70;63.40;;;;;;7369469;19;20035;-69
2023/04/16 07:09:47;;;;;;;51.40;27.75;;;7.70;61.20;;;;;;7367682;19;20474;-69
2023/04/16 07:12:17;;;;;;;48.22;26.17;;;7.60;60.70;;;;;;7369735;19;20029;-69
2023/04/16 07:14:49;;;;;;;49.08;26.90;;;7.60;60.40;;;;;;7366908;19;20019;-69
2023/04/16 07:17:19;;;;;;;48.30;25.48;;;7.70;62.10;;;;;;7391219;19;20006;-70
2023/04/16 07:19:49;;;;;;;50.83;26.33;;;7.70;60.50;;;;;;7367375;19;20031;-69
2023/04/16 07:22:21;;;;;;;47.33;25.75;;;7.70;60.50;;;;;;7369189;19;20014;-69
2023/04/16 07:24:51;;;;;;;42.33;23.23;;;7.70;60.50;;;;;;7366707;19;20055;-68
2023/04/16 07:27:21;;;;;;;42.65;25.40;;;7.70;59.20;;;;;;7367830;19;20011;-67
2023/04/16 07:29:51;;;;;;;40.95;22.48;;;7.70;59.90;;;;;;7366431;19;20014;-68
2023/04/16 07:32:22;;;;;;;39.58;21.73;;;7.70;58.00;;;;;;7388912;19;20014;-68
2023/04/16 07:34:53;;;;;;;41.30;23.70;;;7.70;57.20;;;;;;7366414;19;20378;-69
2023/04/16 07:37:25;;;;;;;39.85;23.58;;;7.70;58.00;;;;;;7367074;19;20011;-69
2023/04/16 07:39:56;;;;;;;37.55;22.50;;;7.70;57.60;;;;;;7366386;19;20035;-70
2023/04/16 07:42:26;;;;;;;40.55;23.67;;;7.70;57.10;;;;;;7368880;19;20044;-69
2023/04/16 07:44:57;;;;;;;41.97;24.23;;;7.70;56.10;;;;;;7366157;19;20015;-68
2023/04/16 07:47:27;;;;;;;34.83;21.58;;;7.80;56.60;;;;;;7390459;19;20007;-69
2023/04/16 07:49:57;;;;;;;36.60;21.35;;;7.80;56.60;;;;;;7364940;19;20114;-68
2023/04/16 07:52:29;;;;;;;35.75;20.95;;;7.80;55.20;;;;;;7367616;19;20449;-69
2023/04/16 07:54:59;;;;;;;35.88;21.33;;;7.90;55.80;;;;;;7365723;19;20010;-69
2023/04/16 07:57:30;;;;;;;33.58;20.00;;;7.90;55.60;;;;;;7367141;19;20010;-68
2023/04/16 08:00:00;;;;;;;34.53;20.33;;;7.80;54.20;;;;;;7365711;19;20387;-69
2023/04/16 08:02:30;;;;;;;32.55;21.33;;;7.80;54.20;;;;;;7389123;19;20486;-70
2023/04/16 08:05:01;;;;;;;32.20;21.27;;;7.90;55.10;;;;;;7362357;19;20400;-69
2023/04/16 08:07:33;;;;;;;35.03;19.58;;;7.90;53.60;;;;;;7366994;19;20546;-70
2023/04/16 08:10:03;;;;;;;36.67;21.42;;;7.90;52.70;;;;;;7369380;19;20010;-69
2023/04/16 08:12:35;;;;;;;27.90;18.15;;;7.90;53.60;;;;;;7373919;19;20035;-68
2023/04/16 08:15:05;;;;;;;31.40;19.65;;;7.90;52.50;;;;;;7372818;19;20011;-69
2023/04/16 08:17:36;;;;;;;30.52;19.38;;;7.90;52.50;;;;;;7396655;19;20006;-69
2023/04/16 08:20:07;;;;;;;31.27;19.65;;;8.10;52.30;;;;;;7372765;19;20014;-69
2023/04/16 08:22:41;;;;;;;29.63;17.80;;;8.10;52.90;;;;;;7373812;19;20026;-69
2023/04/16 08:25:12;;;;;;;31.00;18.35;;;7.90;50.10;;;;;;7370940;19;20014;-69
2023/04/16 08:27:42;;;;;;;30.70;18.67;;;7.90;50.10;;;;;;7373661;19;20021;-69
2023/04/16 08:30:12;;;;;;;29.20;17.02;;;7.90;49.90;;;;;;7372382;19;20018;-69
2023/04/16 08:32:42;;;;;;;30.17;17.77;;;7.90;49.30;;;;;;7373978;19;20011;-69
2023/04/16 08:35:12;;;;;;;27.65;17.55;;;7.90;49.80;;;;;;7394134;19;20015;-69
2023/04/16 08:37:44;;;;;;;30.95;17.17;;;7.90;49.60;;;;;;7373671;19;20014;-69
2023/04/16 08:40:14;;;;;;;28.35;19.38;;;7.90;50.60;;;;;;7371759;19;20015;-69
2023/04/16 08:42:50;;;;;;;30.67;17.63;;;8.00;50.00;;;;;;7373618;19;20007;-68
2023/04/16 08:45:20;;;;;;;29.63;18.52;;;8.00;48.10;;;;;;7369485;19;20571;-70
2023/04/16 08:47:51;;;;;;;25.38;18.27;;;8.00;48.20;;;;;;7371515;19;20010;-70
2023/04/16 08:50:25;;;;;;;27.35;19.25;;;8.10;48.90;;;;;;7391718;19;20018;-69
2023/04/16 08:53:00;;;;;;;36.38;18.60;;;8.00;47.80;;;;;;7373415;19;20034;-69
2023/04/16 08:55:37;;;;;;;29.88;18.45;;;8.20;50.10;;;;;;7370799;19;20359;-69
2023/04/16 08:58:11;;;;;;;27.10;16.92;;;8.10;48.90;;;;;;7373233;19;20015;-69
2023/04/16 09:00:42;;;;;;;32.25;19.75;;;8.10;47.90;;;;;;7371180;19;20015;-69
2023/04/16 09:03:12;;;;;;;30.25;18.73;;;8.10;47.90;;;;;;7372782;19;20017;-69
2023/04/16 09:05:44;;;;;;;28.75;17.63;;;8.10;46.70;;;;;;7369224;19;20011;-68
2023/04/16 09:08:17;;;;;;;26.98;17.23;;;8.20;48.90;;;;;;7394459;19;20505;-69
2023/04/16 09:10:48;;;;;;;28.35;17.48;;;8.20;46.30;;;;;;7370071;19;20009;-69
2023/04/16 09:13:19;;;;;;;28.42;18.67;;;8.20;49.00;;;;;;7371798;19;20007;-69
2023/04/16 09:15:49;;;;;;;30.63;19.08;;;8.20;49.00;;;;;;7372464;19;20714;-68
2023/04/16 09:18:20;;;;;;;28.60;18.63;;;8.20;48.70;;;;;;7371670;19;20013;-68
2023/04/16 09:20:51;;;;;;;30.73;18.67;;;8.30;48.70;;;;;;7369376;19;20078;-69
2023/04/16 09:23:24;;;;;;;28.98;19.63;;;8.30;48.20;;;;;;7392202;19;20010;-68
2023/04/16 09:25:54;;;;;;;26.10;16.52;;;8.40;49.10;;;;;;7371695;19;20015;-69
2023/04/16 09:28:44;;;;;;;28.95;19.08;;;8.20;45.00;;;;;;7370995;19;20011;-69
2023/04/16 09:31:15;;;;;;;27.17;18.10;;;8.20;45.40;;;;;;7371819;19;20089;-69
2023/04/16 09:34:02;;;;;;;27.95;17.75;;;8.40;48.00;;;;;;7369844;19;20039;-67
2023/04/16 09:36:32;;;;;;;31.70;19.20;;;8.50;48.20;;;;;;7371671;19;20014;-69
2023/04/16 09:39:05;;;;;;;31.85;17.95;;;8.40;47.10;;;;;;7372031;19;20789;-69
2023/04/16 09:41:38;;;;;;;34.65;18.80;;;8.30;45.60;;;;;;7392801;19;20035;-68
2023/04/16 09:44:08;;;;;;;30.05;17.80;;;8.30;46.40;;;;;;7367631;19;20006;-69
2023/04/16 09:46:42;;;;;;;30.88;19.00;;;8.30;44.90;;;;;;7371008;19;20018;-67
2023/04/16 09:49:14;;;;;;;26.80;16.83;;;8.40;46.70;;;;;;7369947;19;20494;-69
2023/04/16 09:51:46;;;;;;;31.23;18.80;;;8.30;44.80;;;;;;7371360;19;20074;-69
2023/04/16 09:54:21;;;;;;;28.40;16.80;;;8.40;46.40;;;;;;7369106;19;20487;-68
2023/04/16 09:56:50;;;;;;;29.90;18.83;;;8.30;47.30;;;;;;7370862;19;20446;-69
2023/04/16 09:59:21;;;;;;;30.05;17.75;;;8.30;49.00;;;;;;7390398;19;20021;-69
2023/04/16 10:01:52;;;;;;;31.73;19.38;;;8.30;50.30;;;;;;7371106;19;20034;-68
2023/04/16 10:04:49;;;;;;;32.60;19.30;;;8.40;51.10;;;;;;7367698;19;20015;-69
2023/04/16 10:07:20;;;;;;;35.45;20.10;;;8.20;51.60;;;;;;7371212;19;20513;-68
2023/04/16 10:09:54;;;;;;;38.20;18.73;;;8.20;52.90;;;;;;7368787;19;20003;-69
2023/04/16 10:12:24;;;;;;;;;;;8.20;53.90;;;;;;7370891;19;20474;-69
2023/04/16 10:14:54;;;;;;;36.75;20.50;;;8.20;54.90;;;;;;7368456;19;19919;-69
2023/04/16 10:17:24;;;;;;;34.72;20.02;;;8.30;55.80;;;;;;7391223;19;20408;-69
2023/04/16 10:19:55;;;;;;;37.85;20.92;;;8.30;55.90;;;;;;7368213;19;20017;-69
2023/04/16 10:22:26;;;;;;;34.70;20.58;;;8.30;54.50;;;;;;7369273;19;20010;-69
2023/04/16 10:24:59;;;;;;;31.02;17.90;;;8.40;55.30;;;;;;7367197;19;20356;-69
2023/04/16 10:27:30;;;;;;;35.78;19.45;;;8.30;51.40;;;;;;7368305;19;20015;-68
2023/04/16 10:30:00;;;;;;;32.38;18.15;;;8.30;53.20;;;;;;7368026;19;20352;-69
2023/04/16 10:32:32;;;;;;;33.17;18.70;;;8.30;52.60;;;;;;7390035;19;20367;-69
2023/04/16 10:35:02;;;;;;;31.02;17.40;;;8.30;52.80;;;;;;7367598;19;20018;-70
2023/04/16 10:37:33;;;;;;;34.30;19.20;;;8.30;52.80;;;;;;7369058;19;20561;-68
2023/04/16 10:40:24;;;;;;;29.50;17.00;;;8.30;53.90;;;;;;7366376;19;20483;-68
2023/04/16 10:43:01;;;;;;;29.80;18.17;;;8.20;54.50;;;;;;7369760;19;20011;-69
2023/04/16 10:45:38;;;;;;;28.73;17.45;;;8.30;54.10;;;;;;7368558;19;20007;-69
2023/04/16 10:48:10;;;;;;;28.67;16.52;;;8.30;53.70;;;;;;7369773;19;20074;-68
2023/04/16 10:50:40;;;;;;;29.63;16.00;;;8.30;54.70;;;;;;7367762;19;20074;-69
2023/04/16 10:53:24;;;;;;;30.40;16.55;;;8.20;54.10;;;;;;7390449;19;20014;-69
2023/04/16 10:56:24;;;;;;;27.60;16.80;;;8.20;54.10;;;;;;7368734;19;20021;-68
2023/04/16 10:58:55;;;;;;;29.17;16.08;;;8.30;56.30;;;;;;7368206;19;20006;-69
2023/04/16 11:01:33;;;;;;;28.25;15.75;;;8.20;56.60;;;;;;7368066;19;20034;-68
2023/04/16 11:04:24;;;;;;;27.58;15.48;;;8.30;56.00;;;;;;7366514;19;20015;-67
2023/04/16 11:07:08;;;;;;;24.42;14.20;;;8.20;55.60;;;;;;7367884;19;20010;-68
2023/04/16 11:09:51;;;;;;;25.67;14.93;;;8.30;57.00;;;;;;7366696;19;20006;-68
2023/04/16 11:12:26;;;;;;;21.88;12.95;;;8.20;55.80;;;;;;7368134;19;20023;-69
2023/04/16 11:15:00;;;;;;;21.88;13.68;;;8.20;55.50;;;;;;7366371;19;20479;-68
2023/04/16 11:17:31;;;;;;;;;;;8.30;57.00;;;;;;7390575;19;20086;-68
2023/04/16 11:20:02;;;;;;;22.63;13.50;;;8.20;55.80;;;;;;7366004;19;19914;-69
2023/04/16 11:22:46;;;;;;;20.08;12.77;;;8.30;56.90;;;;;;7368197;19;20030;-68
2023/04/16 11:25:22;;;;;;;20.58;12.05;;;8.30;56.80;;;;;;7366615;19;20489;-68
2023/04/16 11:27:55;;;;;;;22.10;12.27;;;8.30;56.80;;;;;;7368085;19;20014;-69
2023/04/16 11:30:32;;;;;;;19.42;12.40;;;8.30;56.60;;;;;;7365666;19;20011;-69
2023/04/16 11:33:04;;;;;;;21.80;12.48;;;8.40;56.80;;;;;;7367079;19;20565;-69
2023/04/16 11:35:34;;;;;;;21.63;11.60;;;8.20;56.50;;;;;;7388362;19;20011;-69
2023/04/16 11:38:05;;;;;;;20.75;11.68;;;8.30;57.00;;;;;;7367923;19;20014;-70
2023/04/16 11:40:35;;;;;;;18.30;11.20;;;8.30;57.00;;;;;;7364848;19;20017;-69
2023/04/16 11:43:15;;;;;;;23.23;11.93;;;8.20;55.60;;;;;;7367570;19;20011;-69
2023/04/16 11:46:00;;;;;;;20.15;11.05;;;8.30;57.30;;;;;;7371934;19;20007;-69
2023/04/16 11:48:48;;;;;;;24.13;12.20;;;8.30;57.10;;;;;;7374232;19;20010;-71
2023/04/16 11:51:20;;;;;;;19.42;11.52;;;8.40;57.80;;;;;;7374591;19;20035;-69
2023/04/16 11:53:51;;;;;;;21.75;12.38;;;8.40;57.10;;;;;;7373135;19;20086;-70
2023/04/16 11:56:29;;;;;;;18.00;10.65;;;8.40;57.20;;;;;;7396857;19;20022;-69
2023/04/16 11:59:12;;;;;;;18.83;10.70;;;8.30;56.90;;;;;;7374043;19;20038;-68
2023/04/16 12:01:44;;;;;;;16.05;9.93;;;8.30;55.80;;;;;;7374484;19;20085;-69
2023/04/16 12:04:15;;;;;;;14.32;9.70;;;8.40;57.00;;;;;;7373356;19;20166;-70
2023/04/16 12:07:07;;;;;;;16.10;10.57;;;8.40;57.00;;;;;;7373747;19;20023;-69
2023/04/16 12:09:38;;;;;;;20.08;10.55;;;8.40;57.10;;;;;;7372819;19;20078;-69
2023/04/16 12:12:29;;;;;;;16.30;10.35;;;8.40;57.20;;;;;;7375299;19;20052;-70
2023/04/16 12:15:04;;;;;;;17.13;10.05;;;8.40;58.60;;;;;;7371917;19;20544;-68
2023/04/16 12:17:36;;;;;;;15.13;9.55;;;8.40;57.10;;;;;;7395900;19;20084;-69
2023/04/16 12:20:11;;;;;;;12.20;8.18;;;8.40;58.40;;;;;;7372168;19;20006;-70
2023/04/16 12:22:46;;;;;;;13.38;8.80;;;8.30;57.80;;;;;;7373403;19;20010;-69
2023/04/16 12:25:18;;;;;;;12.50;8.27;;;8.30;57.00;;;;;;7372490;19;20106;-69
2023/04/16 12:27:50;;;;;;;15.38;9.13;;;8.30;57.00;;;;;;7373988;19;20102;-70
2023/04/16 12:30:26;;;;;;;14.85;9.80;;;8.40;57.00;;;;;;7371888;19;20003;-70
2023/04/16 12:33:16;;;;;;;12.43;8.27;;;8.40;57.40;;;;;;7371029;19;20082;-69
2023/04/16 12:35:47;;;;;;;13.15;8.70;;;8.30;57.00;;;;;;7372687;19;20082;-69
2023/04/16 12:38:16;;;;;;;19.02;12.40;;;8.40;57.10;;;;;;7395849;19;20029;-69
2023/04/16 12:40:47;;;;;;;15.75;10.63;;;8.50;58.70;;;;;;7370169;19;20078;-69
2023/04/16 12:43:17;;;;;;;16.35;10.68;;;8.50;58.40;;;;;;7373061;19;20007;-68
2023/04/16 12:45:49;;;;;;;13.82;9.13;;;8.50;58.50;;;;;;7373131;19;20014;-69
2023/04/16 12:48:19;;;;;;;14.70;10.07;;;8.50;58.10;;;;;;7374163;19;20014;-69
2023/04/16 12:50:49;;;;;;;15.88;10.02;;;8.40;57.90;;;;;;7370967;19;20018;-69
2023/04/16 12:53:19;;;;;;;15.32;9.85;;;8.40;58.90;;;;;;7394594;19;20467;-69
2023/04/16 12:55:49;;;;;;;23.83;12.88;;;8.40;58.40;;;;;;7371685;19;20006;-70
2023/04/16 12:58:19;;;;;;;17.17;10.77;;;8.40;58.30;;;;;;7373198;19;20010;-69
2023/04/16 13:00:52;;;;;;;18.35;11.85;;;8.40;58.20;;;;;;7371607;19;20006;-69